Time;durP1;ratioP1;P1;durP2;ratioP2;P2;SDS_P1;SDS_P2;PMS_P1;PMS_P2;Temp;Humidity;BMP_temperature;BMP_pressure;BME280_temperature;BME280_humidity;BME280_pressure;Samples;Min_cycle;Max_cycle;Signal;HPM_P1;HPM_P2
2020/12/21 00:00:12;;;;;;;5.03;3.27;;;6.40;99.90;;;7.14;100.00;98743.28;4996140;28;22017;-81
2020/12/21 00:02:40;;;;;;;8.63;3.17;;;6.40;99.90;;;7.17;100.00;98750.78;5003110;28;20836;-82
2020/12/21 00:05:08;;;;;;;8.43;3.33;;;6.40;99.90;;;7.09;100.00;98754.09;5003350;28;20451;-81
2020/12/21 00:07:36;;;;;;;8.97;3.53;;;6.30;99.90;;;7.15;100.00;98757.88;4995349;28;20470;-81
2020/12/21 00:10:06;;;;;;;17.10;3.57;;;6.40;99.90;;;7.12;100.00;98758.19;4997158;28;20486;-81
2020/12/21 00:12:35;;;;;;;8.33;3.37;;;6.40;99.90;;;7.12;100.00;98747.78;4995704;28;20492;-81
2020/12/21 00:15:04;;;;;;;8.63;3.53;;;6.30;99.90;;;7.05;100.00;98751.94;4998314;28;20729;-81
2020/12/21 00:17:34;;;;;;;6.90;3.30;;;6.20;99.90;;;7.06;100.00;98754.41;4994581;28;20455;-81
2020/12/21 00:20:03;;;;;;;7.07;3.27;;;6.30;99.90;;;7.11;100.00;98743.56;4995920;28;20477;-81
2020/12/21 00:22:31;;;;;;;8.37;3.50;;;6.40;99.90;;;7.14;100.00;98750.25;4996343;28;20471;-81
2020/12/21 00:24:58;;;;;;;7.40;3.63;;;6.50;99.90;;;7.14;100.00;98743.28;4994005;28;20467;-81
2020/12/21 00:27:26;;;;;;;10.83;3.50;;;6.50;99.90;;;7.16;100.00;98745.72;4996008;28;20464;-82
2020/12/21 00:29:54;;;;;;;9.43;3.50;;;6.50;99.90;;;7.11;100.00;98740.97;4997274;28;20504;-82
2020/12/21 00:32:21;;;;;;;4.60;3.07;;;6.40;99.90;;;7.08;100.00;98751.66;4995438;28;20476;-82
2020/12/21 00:34:49;;;;;;;4.90;2.80;;;6.30;99.90;;;7.05;100.00;98751.94;4994220;28;20476;-81
2020/12/21 00:37:17;;;;;;;9.47;3.10;;;6.30;99.90;;;7.01;100.00;98750.63;4996228;28;20470;-81
2020/12/21 00:39:45;;;;;;;9.70;3.20;;;6.20;99.90;;;7.03;100.00;98744.31;4996771;28;20894;-81
2020/12/21 00:42:13;;;;;;;7.63;2.57;;;6.30;99.90;;;7.01;100.00;98748.03;4993681;28;20832;-81
2020/12/21 00:44:42;;;;;;;9.03;3.13;;;6.30;99.90;;;7.00;100.00;98743.78;4995708;28;20970;-81
2020/12/21 00:47:09;;;;;;;3.67;2.20;;;6.20;99.90;;;6.96;100.00;98748.47;4995965;28;20868;-81
2020/12/21 00:49:37;;;;;;;12.93;2.30;;;6.20;99.90;;;6.99;100.00;98755.97;4994206;28;20551;-81
2020/12/21 00:52:04;;;;;;;13.00;2.63;;;6.20;99.90;;;6.99;100.00;98745.56;4995300;28;20996;-81
2020/12/21 00:54:33;;;;;;;11.67;3.10;;;6.30;99.90;;;7.00;100.00;98749.81;4996685;28;20491;-81
2020/12/21 00:57:00;;;;;;;9.33;2.93;;;6.30;99.90;;;7.02;100.00;98760.88;4996393;28;20787;-81
2020/12/21 00:59:28;;;;;;;11.07;2.70;;;6.30;99.90;;;7.05;100.00;98765.75;4994775;28;20459;-81
2020/12/21 01:01:56;;;;;;;11.60;2.63;;;6.40;99.90;;;7.05;100.00;98759.75;4995594;28;20478;-81
2020/12/21 01:04:24;;;;;;;9.03;2.60;;;6.30;99.90;;;7.05;100.00;98767.53;4994883;28;20468;-81
2020/12/21 01:06:54;;;;;;;7.20;2.97;;;6.30;99.90;;;7.05;100.00;98765.75;4994924;28;20530;-81
2020/12/21 01:09:22;;;;;;;11.50;3.03;;;6.30;99.90;;;7.04;100.00;98760.72;4993334;28;20502;-81
2020/12/21 01:11:53;;;;;;;6.17;2.70;;;6.30;99.90;;;7.04;100.00;98765.94;4993636;28;20489;-81
2020/12/21 01:14:21;;;;;;;5.50;2.57;;;6.30;99.90;;;7.07;100.00;98765.63;4995293;28;20478;-81
2020/12/21 01:16:49;;;;;;;5.07;2.63;;;6.40;99.90;;;7.06;100.00;98757.00;4996113;28;20464;-81
2020/12/21 01:19:16;;;;;;;8.13;2.90;;;6.30;99.90;;;7.07;100.00;98756.06;4993333;28;20466;-81
2020/12/21 01:21:44;;;;;;;6.07;2.67;;;6.40;99.90;;;7.04;100.00;98764.16;4995669;28;20542;-81
2020/12/21 01:24:12;;;;;;;5.17;2.73;;;6.30;99.90;;;7.03;100.00;98754.72;4992552;28;20466;-81
2020/12/21 01:26:39;;;;;;;4.30;2.30;;;6.30;99.90;;;7.06;100.00;98758.78;4992791;28;20471;-81
2020/12/21 01:29:08;;;;;;;21.90;2.60;;;6.40;99.90;;;7.08;100.00;98757.66;4993112;28;20855;-82
2020/12/21 01:31:35;;;;;;;17.53;3.40;;;6.40;99.90;;;7.05;100.00;98757.13;4995143;28;20483;-81
2020/12/21 01:34:13;;;;;;;9.43;2.50;;;6.30;99.90;;;7.06;100.00;98753.59;4994901;28;20488;-81
2020/12/21 01:36:43;;;;;;;27.57;3.10;;;6.30;99.90;;;7.06;100.00;98748.38;4993683;28;20546;-82
2020/12/21 01:39:10;;;;;;;5.50;2.40;;;6.30;99.90;;;7.05;100.00;98747.56;4994910;28;20895;-81
2020/12/21 01:41:38;;;;;;;7.10;2.60;;;6.30;99.90;;;7.00;100.00;98747.19;4995467;28;20455;-82
2020/12/21 01:44:05;;;;;;;6.50;2.60;;;6.30;99.90;;;7.01;100.00;98745.44;4998890;28;20475;-81
2020/12/21 01:46:34;;;;;;;10.60;2.43;;;6.20;99.90;;;7.03;100.00;98748.69;4999583;28;20792;-81
2020/12/21 01:49:01;;;;;;;10.30;2.70;;;6.30;99.90;;;7.04;100.00;98745.94;5000275;28;20505;-82
2020/12/21 01:51:29;;;;;;;6.30;2.90;;;6.40;99.90;;;7.04;100.00;98747.72;4998229;28;20469;-82
2020/12/21 01:53:59;;;;;;;17.30;3.10;;;6.30;99.90;;;7.03;100.00;98746.91;4996161;28;20474;-81
2020/12/21 01:56:26;;;;;;;16.03;3.07;;;6.30;99.90;;;7.02;100.00;98737.47;4996556;28;20474;-81
2020/12/21 01:58:54;;;;;;;6.23;2.30;;;6.40;99.90;;;7.00;100.00;98743.78;4999303;28;20467;-82
2020/12/21 02:01:22;;;;;;;6.60;2.30;;;6.30;99.90;;;6.96;100.00;98742.44;4996528;28;20991;-81
2020/12/21 02:03:51;;;;;;;5.73;2.57;;;6.20;99.90;;;6.82;100.00;98751.56;4997254;28;20883;-82
2020/12/21 02:06:19;;;;;;;6.23;2.10;;;6.10;99.90;;;6.71;100.00;98748.31;4995785;28;20485;-81
2020/12/21 02:08:47;;;;;;;2.90;2.17;;;6.00;99.90;;;6.79;100.00;98746.66;4997320;28;20483;-81
2020/12/21 02:11:14;;;;;;;11.23;2.70;;;6.00;99.90;;;6.76;100.00;98741.75;4998167;28;20487;-82
2020/12/21 02:13:42;;;;;;;5.00;2.10;;;6.00;99.90;;;6.76;100.00;98746.13;4998652;28;20919;-82
2020/12/21 02:16:14;;;;;;;15.87;2.37;;;6.00;99.90;;;6.75;100.00;98749.69;4996096;28;21045;-81
2020/12/21 02:18:43;;;;;;;11.43;4.17;;;6.00;99.90;;;6.79;100.00;98745.81;4998215;28;20460;-81
2020/12/21 02:21:12;;;;;;;7.40;3.60;;;6.10;99.90;;;6.77;100.00;98739.97;4999668;28;20435;-81
2020/12/21 02:23:39;;;;;;;10.83;2.50;;;6.00;99.90;;;6.77;100.00;98747.75;4998266;28;21643;-81
2020/12/21 02:26:07;;;;;;;6.80;2.80;;;6.10;99.90;;;6.69;100.00;98750.25;4998460;28;20466;-82
2020/12/21 02:28:35;;;;;;;3.20;1.90;;;5.90;99.90;;;6.72;100.00;98750.78;4997470;28;20517;-81
2020/12/21 02:31:02;;;;;;;14.47;2.07;;;5.90;99.90;;;6.70;100.00;98747.50;4994369;28;20487;-81
2020/12/21 02:33:30;;;;;;;10.93;2.40;;;6.00;99.90;;;6.70;100.00;98741.50;4996364;28;20471;-82
2020/12/21 02:35:58;;;;;;;3.30;2.03;;;6.00;99.90;;;6.69;100.00;98745.88;4997598;28;20957;-81
2020/12/21 02:38:27;;;;;;;8.07;1.83;;;6.00;99.90;;;6.66;100.00;98747.97;4996397;28;20467;-81
2020/12/21 02:40:54;;;;;;;9.87;2.40;;;5.90;99.90;;;6.63;100.00;98748.25;4996655;28;20957;-82
2020/12/21 02:43:23;;;;;;;6.80;2.17;;;5.90;99.90;;;6.58;100.00;98748.69;4996758;28;20524;-81
2020/12/21 02:45:51;;;;;;;7.70;2.10;;;5.90;99.90;;;6.55;100.00;98754.97;4997508;28;20463;-81
2020/12/21 02:48:18;;;;;;;12.13;1.93;;;5.80;99.90;;;6.56;100.00;98746.22;4997866;28;20503;-82
2020/12/21 02:50:46;;;;;;;7.13;2.47;;;5.80;99.90;;;6.51;100.00;98742.41;4997031;28;20542;-81
2020/12/21 02:53:16;;;;;;;11.27;2.30;;;5.80;99.90;;;6.48;100.00;98746.13;4998039;28;20445;-81
2020/12/21 02:55:45;;;;;;;8.70;2.17;;;5.70;99.90;;;6.45;100.00;98743.00;4993810;28;20537;-81
2020/12/21 02:58:14;;;;;;;3.23;1.77;;;5.70;99.90;;;6.33;100.00;98744.94;4997668;28;20956;-81
2020/12/21 03:00:42;;;;;;;8.70;1.80;;;5.60;99.90;;;6.42;100.00;98748.50;4994248;28;20590;-82
2020/12/21 03:03:13;;;;;;;5.63;2.00;;;5.60;99.90;;;6.38;100.00;98747.94;4997487;28;20552;-81
2020/12/21 03:05:42;;;;;;;11.77;1.73;;;5.60;99.90;;;6.31;100.00;98743.47;4996187;28;20558;-81
2020/12/21 03:08:11;;;;;;;2.70;1.80;;;5.60;99.90;;;6.38;100.00;98749.72;4994622;28;21127;-81
2020/12/21 03:10:39;;;;;;;4.67;1.57;;;5.60;99.90;;;6.40;100.00;98743.41;4996786;28;20831;-81
2020/12/21 03:13:07;;;;;;;13.30;2.30;;;5.70;99.90;;;6.42;100.00;98741.47;4997071;28;20466;-82
2020/12/21 03:15:35;;;;;;;6.33;2.37;;;5.70;99.90;;;6.46;100.00;98750.63;4997942;28;20463;-82
2020/12/21 03:18:03;;;;;;;19.27;3.67;;;5.70;99.90;;;6.47;100.00;98747.09;4997014;28;20776;-81
2020/12/21 03:20:32;;;;;;;9.03;2.43;;;5.70;99.90;;;6.47;100.00;98748.84;4997505;28;21093;-82
2020/12/21 03:22:59;;;;;;;10.77;2.67;;;5.70;99.90;;;6.47;100.00;98752.28;4998168;28;20467;-81
2020/12/21 03:25:27;;;;;;;6.30;2.43;;;5.70;99.90;;;6.48;100.00;98751.31;4997301;28;20841;-81
2020/12/21 03:27:54;;;;;;;5.43;2.20;;;5.80;99.90;;;6.51;100.00;98748.44;4995995;28;20463;-82
2020/12/21 03:30:23;;;;;;;6.90;2.10;;;5.90;99.90;;;6.53;100.00;98749.09;4994272;28;20533;-81
2020/12/21 03:32:52;;;;;;;7.13;2.17;;;5.90;99.90;;;6.54;100.00;98732.56;4995214;28;20468;-81
2020/12/21 03:35:26;;;;;;;10.20;2.13;;;5.90;99.90;;;6.53;100.00;98741.31;4994923;28;20504;-82
2020/12/21 03:37:54;;;;;;;5.90;2.63;;;5.90;99.90;;;6.53;100.00;98751.69;4994154;28;20971;-81
2020/12/21 03:40:22;;;;;;;9.37;1.80;;;5.80;99.90;;;6.52;100.00;98744.06;4996155;28;20789;-81
2020/12/21 03:42:49;;;;;;;13.97;2.57;;;5.80;99.90;;;6.53;100.00;98749.09;4995507;28;20471;-81
2020/12/21 03:45:17;;;;;;;4.40;2.50;;;5.90;99.90;;;6.56;100.00;98741.00;4999025;28;20451;-81
2020/12/21 03:47:46;;;;;;;5.30;2.00;;;5.90;99.90;;;6.59;100.00;98726.94;4995406;28;20551;-81
2020/12/21 03:50:13;;;;;;;9.63;2.57;;;6.00;99.90;;;6.61;100.00;98725.00;4996500;28;20499;-81
2020/12/21 03:52:42;;;;;;;8.67;2.40;;;6.00;99.90;;;6.61;100.00;98721.56;4997615;28;20549;-81
2020/12/21 03:55:09;;;;;;;12.83;2.60;;;6.00;99.90;;;6.61;100.00;98716.38;4997137;28;20463;-81
2020/12/21 03:57:37;;;;;;;9.93;3.40;;;5.90;99.90;;;6.54;100.00;98714.38;4997128;28;20447;-81
2020/12/21 04:00:07;;;;;;;4.50;2.30;;;5.80;99.90;;;6.49;100.00;98711.38;4995929;28;20435;-81
2020/12/21 04:02:34;;;;;;;2.70;2.07;;;5.80;99.90;;;6.55;100.00;98712.59;4996103;28;20464;-81
2020/12/21 04:05:05;;;;;;;4.13;2.07;;;5.80;99.90;;;6.52;100.00;98713.72;4994987;28;20491;-81
2020/12/21 04:07:34;;;;;;;8.13;2.30;;;5.80;99.90;;;6.56;100.00;98709.84;4996396;28;20517;-81
2020/12/21 04:10:01;;;;;;;5.30;2.10;;;5.80;99.90;;;6.58;100.00;98707.94;4994036;28;20495;-81
2020/12/21 04:12:29;;;;;;;6.43;1.93;;;5.90;99.90;;;6.61;100.00;98712.00;4995919;28;20544;-81
2020/12/21 04:14:56;;;;;;;7.23;2.10;;;5.90;99.90;;;6.63;100.00;98710.06;4997092;28;20479;-82
2020/12/21 04:17:24;;;;;;;5.10;3.23;;;5.90;99.90;;;6.61;100.00;98708.59;4997847;28;20582;-81
2020/12/21 04:19:52;;;;;;;6.60;2.83;;;5.90;99.90;;;6.63;100.00;98717.06;4997756;28;20436;-82
2020/12/21 04:22:20;;;;;;;4.90;1.90;;;5.90;99.90;;;6.66;100.00;98719.38;4994048;28;20459;-81
2020/12/21 04:24:48;;;;;;;10.70;2.30;;;6.00;99.90;;;6.64;100.00;98716.09;4996724;28;20849;-81
2020/12/21 04:27:15;;;;;;;12.83;3.10;;;6.10;99.90;;;6.65;100.00;98717.72;4993739;28;20466;-81
2020/12/21 04:29:43;;;;;;;5.53;2.57;;;6.00;99.90;;;6.67;100.00;98714.00;4994008;28;20565;-81
2020/12/21 04:32:10;;;;;;;3.10;2.00;;;6.10;99.90;;;6.63;100.00;98715.25;4994752;28;20468;-81
2020/12/21 04:34:38;;;;;;;4.30;2.67;;;6.00;99.90;;;6.65;100.00;98715.13;4995807;28;20460;-81
2020/12/21 04:37:05;;;;;;;6.43;2.77;;;6.00;99.90;;;6.69;100.00;98721.69;4995649;28;20463;-82
2020/12/21 04:39:34;;;;;;;6.63;2.80;;;5.90;99.90;;;6.65;100.00;98712.53;4996016;28;20468;-81
2020/12/21 04:42:01;;;;;;;18.10;3.27;;;5.90;99.90;;;6.68;100.00;98712.25;4996434;28;20455;-81
2020/12/21 04:44:29;;;;;;;10.80;3.83;;;5.90;99.90;;;6.71;100.00;98709.34;4995450;28;20472;-82
2020/12/21 04:46:58;;;;;;;5.10;3.57;;;6.00;99.90;;;6.66;100.00;98715.00;4994600;28;20468;-82
2020/12/21 04:49:26;;;;;;;18.30;3.30;;;5.90;99.90;;;6.72;100.00;98717.00;4996795;28;20494;-82
2020/12/21 04:51:54;;;;;;;5.43;2.40;;;6.00;99.90;;;6.76;100.00;98710.56;4998065;28;20470;-81
2020/12/21 04:54:21;;;;;;;5.37;2.90;;;6.10;99.90;;;6.78;100.00;98713.81;4996577;28;20975;-81
2020/12/21 04:56:50;;;;;;;6.87;3.20;;;6.10;99.90;;;6.77;100.00;98708.78;4995701;28;20463;-81
2020/12/21 04:59:17;;;;;;;16.90;5.43;;;6.10;99.90;;;6.76;100.00;98713.16;4994895;28;20471;-80
2020/12/21 05:01:45;;;;;;;9.73;3.60;;;6.10;99.90;;;6.80;100.00;98705.88;4995483;28;20459;-81
2020/12/21 05:04:15;;;;;;;15.37;2.93;;;6.10;99.90;;;6.82;100.00;98704.78;4996694;28;20440;-81
2020/12/21 05:06:51;;;;;;;5.60;2.60;;;6.10;99.90;;;6.80;100.00;98703.28;4997407;28;20458;-81
2020/12/21 05:09:22;;;;;;;10.90;2.97;;;6.10;99.90;;;6.80;100.00;98711.91;4996397;28;20493;-81
2020/12/21 05:12:03;;;;;;;7.13;3.33;;;6.10;99.90;;;6.85;100.00;98701.88;4997488;28;20467;-82
2020/12/21 05:14:35;;;;;;;6.60;2.60;;;6.20;99.90;;;6.86;100.00;98711.31;4995820;28;20470;-82
2020/12/21 05:17:13;;;;;;;9.93;3.00;;;6.20;99.90;;;6.91;100.00;98703.06;4997504;28;20538;-82
2020/12/21 05:19:44;;;;;;;8.33;2.40;;;6.20;99.90;;;6.93;100.00;98706.34;5000529;28;20466;-82
2020/12/21 05:22:16;;;;;;;7.93;2.77;;;6.30;99.90;;;6.93;100.00;98695.94;5000697;28;20497;-82
2020/12/21 05:24:44;;;;;;;8.17;3.20;;;6.30;99.90;;;6.97;100.00;98695.50;5000423;28;20545;-82
2020/12/21 05:27:15;;;;;;;5.03;2.40;;;6.40;99.90;;;6.97;100.00;98699.88;5000313;28;20999;-82
2020/12/21 05:29:52;;;;;;;9.83;3.03;;;6.30;99.90;;;6.97;100.00;98692.09;4995180;28;20498;-81
2020/12/21 05:32:20;;;;;;;80.70;29.87;;;6.30;99.90;;;6.98;100.00;98693.69;4999201;28;20518;-82
2020/12/21 05:34:48;;;;;;;13.93;5.50;;;6.30;99.90;;;6.99;100.00;98682.34;4997020;28;20463;-81
2020/12/21 05:37:17;;;;;;;12.93;5.57;;;6.30;99.90;;;7.00;100.00;98681.38;4996299;28;20454;-81
2020/12/21 05:39:54;;;;;;;8.30;3.80;;;6.30;99.90;;;7.00;100.00;98668.38;4998416;28;20959;-81
2020/12/21 05:42:24;;;;;;;9.83;4.30;;;6.40;99.90;;;7.02;100.00;98666.44;4997985;28;20458;-81
2020/12/21 05:44:54;;;;;;;11.13;3.77;;;6.30;99.90;;;7.02;100.00;98663.84;4998724;28;20964;-81
2020/12/21 05:47:22;;;;;;;7.37;2.47;;;6.30;99.90;;;7.00;100.00;98668.38;4999141;28;20476;-80
2020/12/21 05:49:56;;;;;;;7.10;3.40;;;6.30;99.90;;;7.04;100.00;98661.94;5000768;28;20494;-80
2020/12/21 05:52:31;;;;;;;8.40;2.60;;;6.40;99.90;;;7.04;100.00;98657.53;4999849;28;20476;-81
2020/12/21 05:55:08;;;;;;;9.47;2.93;;;6.30;99.90;;;7.01;100.00;98659.63;4998131;28;20479;-81
2020/12/21 05:57:39;;;;;;;4.73;2.53;;;6.30;99.90;;;6.99;100.00;98661.53;4997882;28;20451;-81
2020/12/21 06:00:09;;;;;;;8.20;3.50;;;6.20;99.90;;;7.03;100.00;98661.09;4998116;28;21002;-81
2020/12/21 06:02:37;;;;;;;6.33;3.43;;;6.30;99.90;;;7.05;100.00;98666.13;4999793;28;20455;-81
2020/12/21 06:05:08;;;;;;;7.20;4.07;;;6.30;99.90;;;7.03;100.00;98665.47;5000409;28;20541;-81
2020/12/21 06:07:38;;;;;;;8.20;2.80;;;6.30;99.90;;;7.01;100.00;98654.44;4996948;28;21423;-81
2020/12/21 06:10:08;;;;;;;5.80;2.80;;;6.30;99.90;;;7.03;100.00;98662.88;5000825;28;20490;-81
2020/12/21 06:12:47;;;;;;;6.20;2.63;;;6.30;99.90;;;7.03;100.00;98658.50;5001758;28;20491;-81
2020/12/21 06:15:20;;;;;;;4.97;2.90;;;6.30;99.90;;;7.01;100.00;98657.03;5001462;28;20506;-81
2020/12/21 06:17:49;;;;;;;8.23;2.70;;;6.20;99.90;;;6.99;100.00;98651.97;5002157;28;20506;-81
2020/12/21 06:20:21;;;;;;;15.43;2.60;;;6.30;99.90;;;6.99;100.00;98640.75;5000030;28;20439;-81
2020/12/21 06:22:49;;;;;;;12.43;2.43;;;6.30;99.90;;;6.92;100.00;98637.94;5001746;28;20594;-81
2020/12/21 06:25:24;;;;;;;6.90;3.63;;;6.20;99.90;;;6.91;100.00;98641.47;5000443;28;21002;-81
2020/12/21 06:27:55;;;;;;;7.37;3.13;;;6.10;99.90;;;6.89;100.00;98632.22;5001647;28;20455;-81
2020/12/21 06:30:31;;;;;;;15.70;2.33;;;6.10;99.90;;;6.87;100.00;98640.13;4999034;28;20600;-81
2020/12/21 06:33:02;;;;;;;6.90;2.50;;;6.10;99.90;;;6.83;100.00;98643.22;5001255;28;20438;-81
2020/12/21 06:35:42;;;;;;;5.60;2.70;;;6.10;99.90;;;6.83;100.00;98651.00;5001296;28;20515;-81
2020/12/21 06:38:10;;;;;;;10.40;3.37;;;6.10;99.90;;;6.84;100.00;98650.84;5000847;28;20463;-81
2020/12/21 06:40:37;;;;;;;8.77;2.63;;;6.10;99.90;;;6.87;100.00;98647.16;5001239;28;20538;-81
2020/12/21 06:43:11;;;;;;;9.13;2.43;;;6.10;99.90;;;6.91;100.00;98653.66;5001680;28;20920;-81
2020/12/21 06:45:38;;;;;;;7.53;3.37;;;6.20;99.90;;;6.93;100.00;98651.75;5001437;28;20928;-81
2020/12/21 06:48:08;;;;;;;4.87;2.73;;;6.20;99.90;;;6.89;100.00;98653.00;5000411;28;20443;-81
2020/12/21 06:50:37;;;;;;;4.30;2.70;;;6.20;99.90;;;6.91;100.00;98645.84;5000086;28;20495;-81
2020/12/21 06:53:07;;;;;;;10.97;2.67;;;6.30;99.90;;;6.96;100.00;98656.66;5000134;28;20935;-81
2020/12/21 06:55:36;;;;;;;4.70;2.23;;;6.20;99.90;;;6.90;100.00;98662.44;5001965;28;20455;-81
2020/12/21 06:58:05;;;;;;;6.07;2.67;;;6.20;99.90;;;6.91;100.00;98662.28;4999769;28;20447;-80
2020/12/21 07:00:35;;;;;;;11.53;3.40;;;6.10;99.90;;;6.93;100.00;98647.38;5000868;28;20555;-81
2020/12/21 07:03:03;;;;;;;11.20;3.40;;;6.20;99.90;;;6.98;100.00;98657.28;5000859;28;20460;-81
2020/12/21 07:05:31;;;;;;;3.73;2.73;;;6.20;99.90;;;6.98;100.00;98662.50;5000793;28;20447;-81
2020/12/21 07:07:59;;;;;;;7.80;2.97;;;6.20;99.90;;;6.96;100.00;98664.44;5000691;28;20534;-81
2020/12/21 07:10:30;;;;;;;11.33;3.10;;;6.20;99.90;;;6.96;100.00;98669.63;5001281;28;20491;-81
2020/12/21 07:12:58;;;;;;;4.57;2.57;;;6.20;99.90;;;6.93;100.00;98667.34;5001887;28;20448;-81
2020/12/21 07:15:25;;;;;;;6.33;2.83;;;6.20;99.90;;;6.93;100.00;98673.38;5000868;28;20456;-81
2020/12/21 07:17:54;;;;;;;10.70;2.67;;;6.20;99.90;;;6.95;100.00;98678.41;5000284;28;21027;-80
2020/12/21 07:20:22;;;;;;;4.83;2.83;;;6.20;99.90;;;7.00;100.00;98671.81;4999547;28;20452;-81
2020/12/21 07:22:50;;;;;;;9.80;3.30;;;6.30;99.90;;;7.05;100.00;98676.53;5001943;28;21008;-81
2020/12/21 07:25:17;;;;;;;5.23;2.60;;;6.30;99.90;;;7.07;100.00;98674.63;5000850;28;20952;-81
2020/12/21 07:27:48;;;;;;;12.33;2.87;;;6.30;99.90;;;7.08;100.00;98668.44;4999651;28;20832;-81
2020/12/21 07:30:15;;;;;;;9.63;2.93;;;6.30;99.90;;;7.06;100.00;98673.81;4998690;28;20522;-81
2020/12/21 07:32:43;;;;;;;11.00;2.63;;;6.30;99.90;;;7.05;100.00;98668.75;5000773;28;20452;-81
2020/12/21 07:35:13;;;;;;;5.73;3.70;;;6.30;99.90;;;7.04;100.00;98661.94;4999887;28;20990;-81
2020/12/21 07:38:11;;;;;;;5.93;2.80;;;6.30;99.90;;;7.02;100.00;98661.25;5000186;28;20940;-81
2020/12/21 07:40:41;;;;;;;6.83;3.30;;;6.20;99.90;;;7.01;100.00;98664.81;4999554;28;20964;-81
2020/12/21 07:43:17;;;;;;;15.57;3.27;;;6.30;99.90;;;7.01;100.00;98664.81;5000123;28;20454;-81
2020/12/21 07:45:49;;;;;;;6.93;2.93;;;6.30;99.90;;;7.02;100.00;98671.63;4998328;28;20499;-81
2020/12/21 07:48:18;;;;;;;4.60;3.20;;;6.30;99.90;;;7.05;100.00;98676.53;4998518;28;20452;-81
2020/12/21 07:50:48;;;;;;;7.53;2.60;;;6.30;99.90;;;7.10;100.00;98671.72;4998896;28;20530;-81
2020/12/21 07:53:16;;;;;;;11.80;3.30;;;6.40;99.90;;;7.12;100.00;98667.16;5000093;28;20455;-81
2020/12/21 07:55:56;;;;;;;5.37;2.70;;;6.40;99.90;;;7.16;100.00;98663.31;4999704;28;20899;-81
2020/12/21 07:58:24;;;;;;;6.10;2.83;;;6.50;99.90;;;7.20;100.00;98667.25;5000187;28;20452;-81
2020/12/21 08:00:59;;;;;;;4.83;3.03;;;6.50;99.90;;;7.21;100.00;98674.09;4999682;28;20460;-81
2020/12/21 08:03:29;;;;;;;10.40;3.30;;;6.50;99.90;;;7.17;100.00;98672.75;4999581;28;20454;-81
2020/12/21 08:06:12;;;;;;;6.07;3.23;;;6.50;99.90;;;7.20;100.00;98674.22;4998965;28;20452;-81
2020/12/21 08:08:41;;;;;;;7.90;3.10;;;6.50;99.90;;;7.20;100.00;98671.63;4998669;28;20455;-81
2020/12/21 08:11:16;;;;;;;7.57;3.93;;;6.50;99.90;;;7.19;100.00;98673.41;4999943;28;20589;-81
2020/12/21 08:13:51;;;;;;;10.27;4.10;;;6.50;99.90;;;7.20;100.00;98667.25;4999868;28;20455;-81
2020/12/21 08:16:25;;;;;;;8.47;4.03;;;6.50;99.90;;;7.23;100.00;98676.53;4999705;28;20464;-81
2020/12/21 08:18:53;;;;;;;6.53;4.20;;;6.60;99.90;;;7.27;100.00;98668.28;4999808;28;20462;-80
2020/12/21 08:21:24;;;;;;;12.70;4.73;;;6.60;99.90;;;7.31;100.00;98664.41;4999809;28;20450;-81
2020/12/21 08:23:53;;;;;;;8.47;3.53;;;6.60;99.90;;;7.27;100.00;98663.09;4999286;28;20451;-80
2020/12/21 08:26:22;;;;;;;8.67;4.00;;;6.60;99.90;;;7.32;100.00;98666.06;4999522;28;20447;-81
2020/12/21 08:28:50;;;;;;;12.77;3.67;;;6.60;99.90;;;7.35;100.00;98676.16;4998675;28;20472;-81
2020/12/21 08:31:21;;;;;;;5.53;3.80;;;6.70;99.90;;;7.31;100.00;98674.00;4998652;28;20948;-81
2020/12/21 08:34:04;;;;;;;15.37;3.83;;;6.70;99.90;;;7.33;100.00;98662.47;4998847;28;20456;-81
2020/12/21 08:36:34;;;;;;;10.93;4.20;;;6.70;99.90;;;7.36;100.00;98663.94;4997694;28;20451;-81
2020/12/21 08:39:09;;;;;;;12.10;4.60;;;6.70;99.90;;;7.39;100.00;98655.88;4999713;28;20501;-81
2020/12/21 08:41:44;;;;;;;8.20;4.37;;;6.80;99.90;;;7.41;100.00;98657.34;4998532;28;20451;-81
2020/12/21 08:44:19;;;;;;;10.77;4.47;;;6.80;99.90;;;7.41;100.00;98657.34;4998318;28;20457;-81
2020/12/21 08:46:51;;;;;;;12.33;4.60;;;6.80;99.90;;;7.47;100.00;98643.72;4999725;28;20887;-81
2020/12/21 08:49:19;;;;;;;14.83;4.97;;;6.80;99.90;;;7.48;100.00;98647.97;4998913;28;20444;-79
2020/12/21 08:51:48;;;;;;;15.37;5.63;;;6.80;99.90;;;7.53;100.00;98643.09;4997668;28;20477;-81
2020/12/21 08:54:16;;;;;;;12.23;4.63;;;6.90;99.90;;;7.56;100.00;98648.03;4999157;28;20458;-80
2020/12/21 08:56:48;;;;;;;17.40;5.30;;;6.90;99.90;;;7.59;100.00;98645.09;4999251;28;20446;-80
2020/12/21 08:59:16;;;;;;;11.73;4.70;;;6.90;99.90;;;7.63;100.00;98643.00;4998199;28;20463;-81
2020/12/21 09:01:44;;;;;;;14.07;4.67;;;7.00;99.90;;;7.66;100.00;98642.72;4998651;28;20462;-81
2020/12/21 09:04:12;;;;;;;12.80;4.80;;;7.00;99.90;;;7.69;100.00;98641.56;4997722;28;20486;-80
2020/12/21 09:06:40;;;;;;;12.20;5.20;;;7.00;99.90;;;7.70;100.00;98638.00;4998791;28;20448;-80
2020/12/21 09:09:11;;;;;;;10.77;5.67;;;7.00;99.90;;;7.70;100.00;98633.63;4998713;28;20435;-80
2020/12/21 09:11:39;;;;;;;5.73;4.33;;;7.10;99.90;;;7.71;100.00;98640.44;4998601;28;20472;-81
2020/12/21 09:14:06;;;;;;;10.90;4.80;;;7.00;99.90;;;7.74;100.00;98649.75;4998643;28;20474;-81
2020/12/21 09:16:34;;;;;;;7.40;4.43;;;7.00;99.90;;;7.76;100.00;98648.63;4999063;28;20452;-81
2020/12/21 09:19:02;;;;;;;9.70;5.47;;;7.10;99.90;;;7.78;100.00;98651.03;4997593;28;21026;-81
2020/12/21 09:21:31;;;;;;;10.07;4.50;;;7.10;99.90;;;7.79;100.00;98653.50;4998790;28;20514;-81
2020/12/21 09:24:01;;;;;;;5.50;4.47;;;7.20;99.90;;;7.84;100.00;98655.66;4998961;28;20451;-81
2020/12/21 09:26:30;;;;;;;13.60;4.50;;;7.20;99.90;;;7.85;100.00;98647.69;4997499;28;20447;-81
2020/12/21 09:28:58;;;;;;;8.63;4.33;;;7.20;99.90;;;7.87;100.00;98639.72;4997982;28;20844;-80
2020/12/21 09:31:26;;;;;;;14.83;5.07;;;7.30;99.90;;;7.90;100.00;98636.81;4997167;28;20499;-81
2020/12/21 09:33:54;;;;;;;11.10;5.03;;;7.20;99.90;;;7.91;100.00;98628.03;4999018;28;20514;-81
2020/12/21 09:36:22;;;;;;;7.10;4.43;;;7.30;99.90;;;7.90;100.00;98627.22;4998856;28;20448;-80
2020/12/21 09:38:50;;;;;;;14.97;5.30;;;7.20;99.90;;;7.91;100.00;98626.22;4998651;28;20443;-81
2020/12/21 09:41:20;;;;;;;6.93;4.50;;;7.20;99.90;;;7.92;100.00;98638.28;4997851;28;20616;-80
2020/12/21 09:43:51;;;;;;;7.80;3.90;;;7.20;99.90;;;7.95;100.00;98637.13;4997455;28;20447;-81
2020/12/21 09:46:20;;;;;;;5.90;4.03;;;7.30;99.90;;;7.99;100.00;98634.09;4998818;28;20435;-81
2020/12/21 09:48:48;;;;;;;6.43;4.47;;;7.30;99.90;;;8.00;100.00;98629.69;4999227;28;20447;-81
2020/12/21 09:51:16;;;;;;;8.40;4.67;;;7.30;99.90;;;7.98;100.00;98622.03;4998159;28;20492;-81
2020/12/21 09:53:45;;;;;;;14.83;4.30;;;7.30;99.90;;;8.00;100.00;98614.88;4998948;28;20453;-80
2020/12/21 09:56:15;;;;;;;10.10;4.60;;;7.40;99.90;;;8.04;100.00;98597.16;4998005;28;20475;-81
2020/12/21 09:58:45;;;;;;;7.00;3.90;;;7.40;99.90;;;8.07;100.00;98600.28;4998467;28;20450;-81
2020/12/21 10:01:14;;;;;;;8.47;5.00;;;7.40;99.90;;;8.10;100.00;98599.94;4997768;28;20451;-80
2020/12/21 10:03:42;;;;;;;10.80;4.50;;;7.40;99.90;;;8.13;100.00;98583.19;4999016;28;20801;-80
2020/12/21 10:06:12;;;;;;;7.10;3.87;;;7.50;99.90;;;8.15;100.00;98576.03;5001237;28;20448;-80
2020/12/21 10:08:40;;;;;;;11.00;4.80;;;7.60;99.90;;;8.21;100.00;98575.41;5000722;28;20451;-81
2020/12/21 10:11:08;;;;;;;18.10;4.97;;;7.60;99.90;;;8.24;100.00;98567.25;5001170;28;20503;-81
2020/12/21 10:13:36;;;;;;;9.20;5.20;;;7.70;99.90;;;8.28;100.00;98568.63;5001912;28;20444;-80
2020/12/21 10:16:04;;;;;;;10.70;4.60;;;7.70;99.90;;;8.31;100.00;98573.50;5002089;28;20461;-81
2020/12/21 10:18:32;;;;;;;7.97;3.90;;;7.80;99.90;;;8.35;100.00;98568.78;5000237;28;20451;-80
2020/12/21 10:21:01;;;;;;;10.20;4.00;;;7.80;99.90;;;8.39;100.00;98564.88;5001823;28;20454;-80
2020/12/21 10:23:30;;;;;;;6.20;3.90;;;7.90;99.90;;;8.41;100.00;98544.69;5001254;28;20455;-81
2020/12/21 10:26:00;;;;;;;7.40;3.90;;;7.90;99.90;;;8.45;100.00;98528.56;5000745;28;20451;-80
2020/12/21 10:28:28;;;;;;;11.47;3.63;;;8.00;99.90;;;8.49;100.00;98540.31;5001038;28;20559;-80
2020/12/21 10:30:56;;;;;;;6.73;3.83;;;8.00;99.90;;;8.53;100.00;98548.63;5001684;28;20987;-80